Time;durP1;ratioP1;P1;durP2;ratioP2;P2;SDS_P1;SDS_P2;PMS_P1;PMS_P2;Temp;Humidity;BMP_temperature;BMP_pressure;BME280_temperature;BME280_humidity;BME280_pressure;Samples;Min_cycle;Max_cycle;Signal;HPM_P1;HPM_P2
2022/04/24 00:01:32;;;;;;;4.70;4.30;;;7.10;1.00;;;;;;5072148;28;20202;-63
2022/04/24 00:03:58;;;;;;;7.43;4.60;;;7.10;1.00;;;;;;5072329;28;20177;-63
2022/04/24 00:06:24;;;;;;;5.30;4.73;;;7.10;1.00;;;;;;5074682;28;20185;-65
2022/04/24 00:08:50;;;;;;;5.13;4.73;;;7.20;1.00;;;;;;5075062;28;20400;-63
2022/04/24 00:11:16;;;;;;;8.20;4.80;;;7.20;1.00;;;;;;5075633;28;20499;-63
2022/04/24 00:13:43;;;;;;;5.37;4.87;;;7.30;1.00;;;;;;5075824;28;20189;-67
2022/04/24 00:16:09;;;;;;;4.40;4.00;;;7.10;1.00;;;;;;5074863;28;20451;-66
2022/04/24 00:18:37;;;;;;;6.30;4.70;;;7.10;1.00;;;;;;5074769;28;20921;-64
2022/04/24 00:21:04;;;;;;;6.73;4.30;;;6.90;1.00;;;;;;5075445;28;20426;-63
2022/04/24 00:23:30;;;;;;;10.03;4.03;;;6.90;1.00;;;;;;5074444;28;20510;-63
2022/04/24 00:25:56;;;;;;;4.60;4.20;;;6.80;1.00;;;;;;5075138;28;20515;-66
2022/04/24 00:28:22;;;;;;;6.63;4.40;;;6.80;1.00;;;;;;5075306;28;20503;-63
2022/04/24 00:30:47;;;;;;;7.57;4.73;;;6.70;1.00;;;;;;5074530;28;20190;-63
2022/04/24 00:33:13;;;;;;;5.37;4.87;;;6.70;1.00;;;;;;5074681;28;20194;-65
2022/04/24 00:35:39;;;;;;;7.63;5.20;;;6.60;1.00;;;;;;5074907;28;20182;-62
2022/04/24 00:38:04;;;;;;;6.17;5.57;;;6.70;1.00;;;;;;5075302;28;20189;-66
2022/04/24 00:40:30;;;;;;;4.30;3.83;;;6.60;1.00;;;;;;5074278;28;20646;-63
2022/04/24 00:42:56;;;;;;;6.40;4.80;;;6.60;1.00;;;;;;5075130;28;20190;-67
2022/04/24 00:45:21;;;;;;;4.93;4.37;;;6.60;1.00;;;;;;5073981;28;20181;-63
2022/04/24 00:47:47;;;;;;;9.63;5.63;;;6.50;1.00;;;;;;5075203;28;20179;-63
2022/04/24 00:50:13;;;;;;;6.47;5.87;;;6.50;1.00;;;;;;5074048;28;20239;-62
2022/04/24 00:52:39;;;;;;;12.50;5.33;;;6.50;1.00;;;;;;5074032;28;20972;-66
2022/04/24 00:55:06;;;;;;;8.20;5.40;;;6.50;1.00;;;;;;5074606;28;20428;-67
2022/04/24 00:57:32;;;;;;;8.40;5.47;;;6.40;1.00;;;;;;5074841;28;20698;-62
2022/04/24 00:59:57;;;;;;;5.17;4.53;;;6.50;1.00;;;;;;5073809;28;20416;-66
2022/04/24 01:02:23;;;;;;;14.30;5.57;;;6.40;1.00;;;;;;5074897;28;20577;-67
2022/04/24 01:04:49;;;;;;;7.93;5.57;;;6.40;1.00;;;;;;5074687;28;20200;-65
2022/04/24 01:07:15;;;;;;;9.63;6.67;;;6.50;1.00;;;;;;5074735;28;20490;-63
2022/04/24 01:09:40;;;;;;;7.37;4.90;;;6.50;1.00;;;;;;5073202;28;20278;-68
2022/04/24 01:12:07;;;;;;;6.50;5.40;;;6.40;1.00;;;;;;5073784;28;20578;-66
2022/04/24 01:14:34;;;;;;;7.37;5.13;;;6.40;1.00;;;;;;5073056;28;20535;-66
2022/04/24 01:17:01;;;;;;;6.90;5.23;;;6.40;1.00;;;;;;5074688;28;20405;-66
2022/04/24 01:19:27;;;;;;;7.73;5.70;;;6.50;1.00;;;;;;5073376;28;20462;-66
2022/04/24 01:21:54;;;;;;;6.93;6.10;;;6.60;1.00;;;;;;5074496;28;20416;-66
2022/04/24 01:24:23;;;;;;;6.60;5.90;;;6.60;1.00;;;;;;5074445;28;20503;-62
2022/04/24 01:26:49;;;;;;;6.20;5.33;;;6.50;1.00;;;;;;5074490;28;20427;-65
2022/04/24 01:29:16;;;;;;;6.70;6.00;;;6.40;1.00;;;;;;5073112;28;20420;-62
2022/04/24 01:31:44;;;;;;;9.27;6.50;;;6.30;1.00;;;;;;5073712;28;20420;-64
2022/04/24 01:34:10;;;;;;;19.10;7.20;;;6.20;1.00;;;;;;5073714;28;20928;-66
2022/04/24 01:36:36;;;;;;;9.80;7.13;;;6.10;1.00;;;;;;5074262;28;20420;-62
2022/04/24 01:39:02;;;;;;;16.10;8.97;;;6.10;1.00;;;;;;5072972;28;20506;-65
2022/04/24 01:41:28;;;;;;;11.73;7.33;;;6.00;1.00;;;;;;5074008;28;20182;-66
2022/04/24 01:43:53;;;;;;;12.20;9.13;;;6.10;1.00;;;;;;5073916;28;20893;-62
2022/04/24 01:46:19;;;;;;;19.73;8.73;;;6.10;1.00;;;;;;5074136;28;20163;-66
2022/04/24 01:48:45;;;;;;;14.30;9.33;;;6.20;1.00;;;;;;5072692;28;20496;-63
2022/04/24 01:51:11;;;;;;;15.63;8.83;;;6.30;1.00;;;;;;5073400;28;20181;-66
2022/04/24 01:53:37;;;;;;;12.87;8.23;;;6.20;1.00;;;;;;5073083;28;20190;-65
2022/04/24 01:56:06;;;;;;;9.43;8.43;;;6.20;1.00;;;;;;5073810;28;20458;-65
2022/04/24 01:58:32;;;;;;;12.27;8.83;;;6.30;1.00;;;;;;5072067;28;20205;-62
2022/04/24 02:00:57;;;;;;;13.93;8.70;;;6.20;1.00;;;;;;5073690;28;20473;-65
2022/04/24 02:03:25;;;;;;;12.13;7.27;;;6.20;1.00;;;;;;5073618;28;20416;-63
2022/04/24 02:05:51;;;;;;;15.87;8.77;;;6.20;1.00;;;;;;5073468;28;20162;-67
2022/04/24 02:08:17;;;;;;;14.50;8.30;;;6.20;1.00;;;;;;5073413;28;20446;-63
2022/04/24 02:10:43;;;;;;;13.27;9.40;;;6.20;1.00;;;;;;5072314;28;20400;-64
2022/04/24 02:13:09;;;;;;;15.83;8.10;;;6.10;1.00;;;;;;5072817;28;20436;-67
2022/04/24 02:15:35;;;;;;;9.40;7.77;;;6.10;1.00;;;;;;5073483;28;20170;-63
2022/04/24 02:18:01;;;;;;;14.17;8.50;;;6.10;1.00;;;;;;5073102;28;20944;-66
2022/04/24 02:20:30;;;;;;;9.37;7.30;;;6.10;1.00;;;;;;5072605;28;20224;-66
2022/04/24 02:22:57;;;;;;;12.70;6.63;;;6.20;1.00;;;;;;5073027;28;20432;-63
2022/04/24 02:25:27;;;;;;;11.07;6.57;;;6.30;1.00;;;;;;5073357;28;20483;-67
2022/04/24 02:27:54;;;;;;;12.67;7.77;;;6.40;1.00;;;;;;5072553;28;20435;-62
2022/04/24 02:30:30;;;;;;;10.60;7.87;;;6.40;1.00;;;;;;5070740;28;20722;-65
2022/04/24 02:32:59;;;;;;;18.97;7.00;;;6.40;1.00;;;;;;5072722;28;20436;-66
2022/04/24 02:35:26;;;;;;;6.87;6.00;;;6.40;1.00;;;;;;5073181;28;20462;-63
2022/04/24 02:37:51;;;;;;;8.80;5.80;;;6.40;1.00;;;;;;5072631;28;20460;-65
2022/04/24 02:40:21;;;;;;;8.27;5.83;;;6.50;1.00;;;;;;5071117;28;20419;-63
2022/04/24 02:42:49;;;;;;;7.00;5.73;;;6.50;1.00;;;;;;5072866;28;20197;-66
2022/04/24 02:45:15;;;;;;;8.47;5.70;;;6.50;1.00;;;;;;5073123;28;20479;-67
2022/04/24 02:47:40;;;;;;;5.20;4.70;;;6.50;1.00;;;;;;5072202;28;20463;-65
2022/04/24 02:50:07;;;;;;;6.33;5.63;;;6.50;1.00;;;;;;5070533;28;20416;-66
2022/04/24 02:52:32;;;;;;;5.17;4.67;;;6.30;1.00;;;;;;5072690;28;20202;-65
2022/04/24 02:54:58;;;;;;;6.00;4.70;;;6.30;1.00;;;;;;5073184;28;20405;-67
2022/04/24 02:57:24;;;;;;;6.60;5.40;;;6.30;1.00;;;;;;5072556;28;20174;-63
2022/04/24 02:59:49;;;;;;;14.43;6.10;;;6.30;1.00;;;;;;5072040;28;20162;-65
2022/04/24 03:02:16;;;;;;;6.57;4.83;;;6.20;1.00;;;;;;5072640;28;20182;-62
2022/04/24 03:04:42;;;;;;;13.53;5.80;;;6.20;1.00;;;;;;5072083;28;20177;-66
2022/04/24 03:07:08;;;;;;;6.30;5.50;;;6.10;1.00;;;;;;5072597;28;20424;-65
2022/04/24 03:09:34;;;;;;;5.50;4.60;;;6.10;1.00;;;;;;5071963;28;20395;-62
2022/04/24 03:11:59;;;;;;;8.30;5.23;;;6.10;1.00;;;;;;5072420;28;20636;-64
2022/04/24 03:14:25;;;;;;;7.47;4.57;;;6.20;1.00;;;;;;5072794;28;20169;-64
2022/04/24 03:16:51;;;;;;;5.10;4.60;;;6.10;1.00;;;;;;5071350;28;20269;-67
2022/04/24 03:19:16;;;;;;;6.70;4.40;;;6.10;1.00;;;;;;5071634;28;20451;-65
2022/04/24 03:21:42;;;;;;;5.27;4.87;;;6.10;1.00;;;;;;5071596;28;20273;-67
2022/04/24 03:24:08;;;;;;;8.10;5.27;;;6.10;1.00;;;;;;5072701;28;20167;-65
2022/04/24 03:26:34;;;;;;;6.67;5.97;;;6.10;1.00;;;;;;5072347;28;20162;-67
2022/04/24 03:28:59;;;;;;;5.73;4.70;;;6.10;1.00;;;;;;5071919;28;20180;-66
2022/04/24 03:31:25;;;;;;;5.40;4.90;;;6.10;1.00;;;;;;5072372;28;20172;-63
2022/04/24 03:33:52;;;;;;;5.07;4.67;;;6.10;1.00;;;;;;5072333;28;20427;-63
2022/04/24 03:36:18;;;;;;;5.27;4.77;;;6.20;1.00;;;;;;5072153;28;20205;-67
2022/04/24 03:38:44;;;;;;;6.53;5.83;;;6.20;1.00;;;;;;5070897;28;21000;-66
2022/04/24 03:41:10;;;;;;;7.23;4.83;;;6.20;1.00;;;;;;5075295;28;20799;-63
2022/04/24 03:43:35;;;;;;;6.63;5.43;;;6.20;1.00;;;;;;5076131;28;20485;-65
2022/04/24 03:46:01;;;;;;;4.93;4.53;;;6.20;1.00;;;;;;5076299;28;20170;-63
2022/04/24 03:48:27;;;;;;;8.43;6.37;;;6.20;1.00;;;;;;5075771;28;20170;-66
2022/04/24 03:50:52;;;;;;;6.30;5.10;;;6.20;1.00;;;;;;5075636;28;20182;-63
2022/04/24 03:53:18;;;;;;;5.17;4.77;;;6.20;1.00;;;;;;5075918;28;20267;-63
2022/04/24 03:55:45;;;;;;;7.00;5.80;;;6.00;1.00;;;;;;5075324;28;20575;-67
2022/04/24 03:58:11;;;;;;;5.40;4.90;;;6.00;1.00;;;;;;5075713;28;20562;-67
2022/04/24 04:00:37;;;;;;;9.50;5.90;;;6.00;1.00;;;;;;5074102;28;20465;-65
2022/04/24 04:03:02;;;;;;;12.30;6.17;;;6.00;1.00;;;;;;5075720;28;20432;-67
2022/04/24 04:05:29;;;;;;;6.47;5.00;;;6.10;1.00;;;;;;5074773;28;20166;-66
2022/04/24 04:07:55;;;;;;;8.50;4.90;;;6.00;1.00;;;;;;5075622;28;20257;-63
2022/04/24 04:10:22;;;;;;;6.70;4.83;;;6.00;1.00;;;;;;5073647;28;20873;-65
2022/04/24 04:12:48;;;;;;;8.30;5.70;;;6.00;1.00;;;;;;5074876;28;20483;-65
2022/04/24 04:15:14;;;;;;;6.43;5.77;;;6.00;1.00;;;;;;5075793;28;20846;-63
2022/04/24 04:17:40;;;;;;;5.30;4.80;;;5.90;1.00;;;;;;5074463;28;20523;-63
2022/04/24 04:20:11;;;;;;;8.80;5.33;;;5.90;1.00;;;;;;5074884;28;20165;-62
2022/04/24 04:22:48;;;;;;;5.63;4.67;;;5.90;1.00;;;;;;5075286;28;20186;-63
2022/04/24 04:25:14;;;;;;;5.50;5.00;;;6.10;1.00;;;;;;5075588;28;20722;-63
2022/04/24 04:27:40;;;;;;;5.60;4.60;;;6.00;1.00;;;;;;5075194;28;20412;-66
2022/04/24 04:30:06;;;;;;;6.63;3.97;;;6.10;1.00;;;;;;5073671;28;20419;-66
2022/04/24 04:32:33;;;;;;;8.80;5.37;;;6.10;1.00;;;;;;5074414;28;20429;-66
2022/04/24 04:34:59;;;;;;;4.93;4.53;;;6.10;1.00;;;;;;5074540;28;20504;-65
2022/04/24 04:37:24;;;;;;;5.43;4.97;;;6.10;1.00;;;;;;5073751;28;20499;-66
2022/04/24 04:39:50;;;;;;;6.33;5.30;;;6.10;1.00;;;;;;5074272;28;20488;-63
2022/04/24 04:42:16;;;;;;;9.63;4.80;;;6.10;1.00;;;;;;5075062;28;20194;-61
2022/04/24 04:44:43;;;;;;;9.17;6.00;;;6.20;1.00;;;;;;5074861;28;20175;-66
2022/04/24 04:47:08;;;;;;;4.50;4.10;;;6.20;1.00;;;;;;5074985;28;20189;-63
2022/04/24 04:49:34;;;;;;;4.77;4.43;;;6.20;1.00;;;;;;5073169;28;20416;-63
2022/04/24 04:51:59;;;;;;;7.57;5.37;;;6.30;1.00;;;;;;5074747;28;20186;-62
2022/04/24 04:54:25;;;;;;;6.20;4.60;;;6.30;1.00;;;;;;5074885;28;20167;-67
2022/04/24 04:56:51;;;;;;;6.83;5.73;;;6.30;1.00;;;;;;5074989;28;20182;-66
2022/04/24 04:59:16;;;;;;;6.13;5.00;;;6.40;1.00;;;;;;5073658;28;20202;-62
2022/04/24 05:01:42;;;;;;;6.33;5.47;;;6.50;1.00;;;;;;5075195;28;20659;-65
2022/04/24 05:04:07;;;;;;;5.40;4.40;;;6.50;1.00;;;;;;5074780;28;20170;-65
2022/04/24 05:06:33;;;;;;;5.60;5.10;;;6.50;1.00;;;;;;5073922;28;20244;-63
2022/04/24 05:08:59;;;;;;;5.60;4.83;;;6.60;1.00;;;;;;5073652;28;20644;-63
2022/04/24 05:11:24;;;;;;;6.90;5.60;;;6.60;1.00;;;;;;5074697;28;20167;-65
2022/04/24 05:13:50;;;;;;;9.10;5.87;;;6.60;1.00;;;;;;5072872;28;20262;-66
2022/04/24 05:16:15;;;;;;;5.70;5.20;;;6.70;1.00;;;;;;5074712;28;20166;-66
2022/04/24 05:18:41;;;;;;;8.10;5.60;;;6.60;1.00;;;;;;5073339;28;20200;-65
2022/04/24 05:21:07;;;;;;;6.10;5.50;;;6.70;1.00;;;;;;5073551;28;20277;-66
2022/04/24 05:23:32;;;;;;;6.60;5.77;;;6.80;1.00;;;;;;5074317;28;20186;-66
2022/04/24 05:25:58;;;;;;;9.63;6.40;;;6.90;1.00;;;;;;5073652;28;20169;-63
2022/04/24 05:28:23;;;;;;;8.90;5.20;;;6.90;1.00;;;;;;5073968;28;20541;-66
2022/04/24 05:30:49;;;;;;;5.20;4.80;;;6.90;1.00;;;;;;5072680;28;20239;-64
2022/04/24 05:33:18;;;;;;;10.83;5.33;;;7.00;1.00;;;;;;5073809;28;20679;-64
2022/04/24 05:35:44;;;;;;;7.10;5.50;;;7.10;1.00;;;;;;5074260;28;20416;-67
2022/04/24 05:38:10;;;;;;;9.93;4.90;;;7.10;1.00;;;;;;5073980;28;20451;-62
2022/04/24 05:40:36;;;;;;;6.33;4.87;;;7.20;1.00;;;;;;5071678;28;20182;-65
2022/04/24 05:43:01;;;;;;;6.13;5.53;;;7.30;1.00;;;;;;5072890;28;20588;-65
2022/04/24 05:45:27;;;;;;;4.40;4.00;;;7.30;1.00;;;;;;5073056;28;20178;-67
2022/04/24 05:47:56;;;;;;;5.13;4.60;;;7.30;1.00;;;;;;5072738;28;20170;-67
2022/04/24 05:50:23;;;;;;;6.20;5.60;;;7.30;1.00;;;;;;5071615;28;20170;-67
2022/04/24 05:52:49;;;;;;;7.07;4.53;;;7.30;1.00;;;;;;5073582;28;20416;-67
2022/04/24 05:55:15;;;;;;;5.30;4.80;;;7.40;1.00;;;;;;5073560;28;20499;-66
2022/04/24 05:57:40;;;;;;;8.20;5.13;;;7.50;1.00;;;;;;5072629;28;20238;-67
2022/04/24 06:00:08;;;;;;;6.40;5.63;;;7.70;1.00;;;;;;5072221;28;20256;-63
2022/04/24 06:02:34;;;;;;;6.17;5.57;;;7.70;1.00;;;;;;5072560;28;20812;-65
2022/04/24 06:04:59;;;;;;;4.33;3.93;;;7.60;1.00;;;;;;5073332;28;20408;-66
2022/04/24 06:07:25;;;;;;;6.13;4.67;;;7.70;1.00;;;;;;5073491;28;20404;-65
2022/04/24 06:09:51;;;;;;;5.63;4.93;;;7.70;1.00;;;;;;5072752;28;20166;-62
2022/04/24 06:12:17;;;;;;;4.53;4.10;;;7.70;1.00;;;;;;5073268;28;20193;-61
2022/04/24 06:14:43;;;;;;;6.60;4.77;;;7.80;1.00;;;;;;5073597;28;20530;-65
2022/04/24 06:17:08;;;;;;;5.40;4.80;;;7.80;1.00;;;;;;5071566;28;20471;-63
2022/04/24 06:19:34;;;;;;;6.00;5.23;;;7.90;1.00;;;;;;5072191;28;20206;-65
2022/04/24 06:22:00;;;;;;;4.60;4.23;;;7.90;1.00;;;;;;5073076;28;20193;-62
2022/04/24 06:24:26;;;;;;;7.57;4.37;;;7.90;1.00;;;;;;5073181;28;20249;-67
2022/04/24 06:26:52;;;;;;;4.67;4.20;;;8.00;1.00;;;;;;5073036;28;20909;-66
2022/04/24 06:29:17;;;;;;;9.53;5.33;;;8.10;1.00;;;;;;5072521;28;20205;-65
2022/04/24 06:31:43;;;;;;;4.57;4.07;;;8.20;1.00;;;;;;5072752;28;20995;-67
2022/04/24 06:34:10;;;;;;;8.13;5.40;;;8.30;1.00;;;;;;5073355;28;20253;-62
2022/04/24 06:36:36;;;;;;;4.30;4.00;;;8.30;1.00;;;;;;5071851;28;20169;-63
2022/04/24 06:39:02;;;;;;;5.17;4.77;;;8.30;1.00;;;;;;5072168;28;20459;-66
2022/04/24 06:41:28;;;;;;;4.80;4.30;;;8.40;1.00;;;;;;5072676;28;20173;-63
2022/04/24 06:43:54;;;;;;;5.07;4.57;;;8.30;1.00;;;;;;5072928;28;20479;-66
2022/04/24 06:46:20;;;;;;;6.10;4.90;;;8.20;1.00;;;;;;5071669;28;20533;-62
2022/04/24 06:48:45;;;;;;;6.17;4.43;;;8.20;1.00;;;;;;5072159;28;20929;-62
2022/04/24 06:51:11;;;;;;;4.83;4.50;;;8.20;1.00;;;;;;5072803;28;20182;-65
2022/04/24 06:53:38;;;;;;;4.20;3.90;;;8.30;1.00;;;;;;5071825;28;20646;-62
2022/04/24 06:56:04;;;;;;;4.60;4.17;;;8.30;1.00;;;;;;5071868;28;20201;-65
2022/04/24 06:58:30;;;;;;;5.23;4.73;;;8.50;1.00;;;;;;5072135;28;20492;-71
2022/04/24 07:00:56;;;;;;;4.90;4.47;;;8.70;1.00;;;;;;5071780;28;20485;-63
2022/04/24 07:03:24;;;;;;;4.23;3.93;;;8.80;1.00;;;;;;5071674;28;20972;-66
2022/04/24 07:05:53;;;;;;;5.87;5.20;;;8.80;99.90;;;;;;5072355;28;20492;-65
2022/04/24 07:08:19;;;;;;;6.00;4.67;;;8.80;99.90;;;;;;5072874;28;20454;-65
2022/04/24 07:10:45;;;;;;;4.33;4.03;;;8.80;99.90;;;;;;5071750;28;20417;-65
2022/04/24 07:13:11;;;;;;;6.13;5.67;;;8.70;99.90;;;;;;5070946;28;20535;-66
2022/04/24 07:15:38;;;;;;;4.80;4.40;;;8.90;99.90;;;;;;5076069;28;20627;-63
2022/04/24 07:18:05;;;;;;;4.73;4.43;;;8.80;99.90;;;;;;5075583;28;20186;-65
2022/04/24 07:20:31;;;;;;;5.23;4.70;;;8.80;99.90;;;;;;5074793;28;20408;-66
2022/04/24 07:23:01;;;;;;;5.80;5.30;;;8.80;99.90;;;;;;5076785;28;20531;-62
2022/04/24 07:25:34;;;;;;;7.67;4.50;;;8.80;99.90;;;;;;5076845;28;20427;-63
2022/04/24 07:28:00;;;;;;;3.80;3.50;;;8.80;99.90;;;;;;5076638;28;20410;-63
2022/04/24 07:30:25;;;;;;;4.23;3.93;;;9.00;99.90;;;;;;5075853;28;20404;-63
2022/04/24 07:32:53;;;;;;;4.73;4.17;;;9.20;99.90;;;;;;5075755;28;20190;-66
2022/04/24 07:35:24;;;;;;;5.03;4.17;;;9.30;99.90;;;;;;5076614;28;20245;-63
2022/04/24 07:37:50;;;;;;;4.40;4.10;;;9.50;99.90;;;;;;5076503;28;20475;-65
2022/04/24 07:40:19;;;;;;;4.00;3.70;;;9.50;99.90;;;;;;5075581;28;20429;-63
2022/04/24 07:42:59;;;;;;;4.60;4.30;;;9.60;99.90;;;;;;5076356;28;20439;-63
2022/04/24 07:45:31;;;;;;;4.50;4.10;;;9.50;99.90;;;;;;5076342;28;20430;-63
2022/04/24 07:47:58;;;;;;;5.10;4.70;;;9.70;99.90;;;;;;5076178;28;20405;-63
2022/04/24 07:50:29;;;;;;;5.50;5.00;;;9.80;99.90;;;;;;5074469;28;20484;-64
2022/04/24 07:52:56;;;;;;;5.00;4.50;;;9.80;99.90;;;;;;5076176;28;20496;-62
2022/04/24 07:55:24;;;;;;;3.93;3.63;;;9.90;99.90;;;;;;5075125;28;20454;-66
2022/04/24 07:57:53;;;;;;;4.60;4.20;;;10.00;99.90;;;;;;5075970;28;20486;-67
2022/04/24 08:00:21;;;;;;;4.80;4.37;;;10.00;99.90;;;;;;5075081;28;20425;-63
2022/04/24 08:03:08;;;;;;;4.07;3.67;;;9.90;99.90;;;;;;5075936;28;20758;-66
2022/04/24 08:05:38;;;;;;;5.73;4.70;;;9.90;99.90;;;;;;5076021;28;20403;-62
2022/04/24 08:08:15;;;;;;;8.93;3.93;;;9.80;99.90;;;;;;5074714;28;20483;-63
2022/04/24 08:10:43;;;;;;;3.50;3.30;;;9.80;99.90;;;;;;5074177;28;20416;-67
2022/04/24 08:13:09;;;;;;;4.17;3.77;;;9.70;99.90;;;;;;5075782;28;20502;-63
2022/04/24 08:15:37;;;;;;;4.73;4.10;;;9.70;99.90;;;;;;5075944;28;20887;-63
2022/04/24 08:18:04;;;;;;;3.40;3.17;;;9.80;99.90;;;;;;5075552;28;20218;-62
2022/04/24 08:20:32;;;;;;;6.03;4.57;;;9.90;99.90;;;;;;5073534;28;20412;-67
2022/04/24 08:22:59;;;;;;;6.07;4.20;;;9.80;99.90;;;;;;5074497;28;20433;-66
2022/04/24 08:25:26;;;;;;;4.30;3.90;;;9.70;99.90;;;;;;5074962;28;20781;-66
2022/04/24 08:27:56;;;;;;;3.57;3.27;;;9.80;99.90;;;;;;5074767;28;20915;-66
2022/04/24 08:30:26;;;;;;;6.10;4.40;;;10.00;99.90;;;;;;5074580;28;20415;-66
2022/04/24 08:32:52;;;;;;;5.57;5.10;;;10.30;99.90;;;;;;5075474;28;20980;-62
2022/04/24 08:35:19;;;;;;;6.50;5.03;;;10.40;99.90;;;;;;5074134;28;20416;-63
2022/04/24 08:37:46;;;;;;;4.83;4.37;;;10.30;99.90;;;;;;5075342;28;20864;-63
2022/04/24 08:40:15;;;;;;;8.47;4.93;;;10.40;99.90;;;;;;5074732;28;20454;-66
2022/04/24 08:42:41;;;;;;;4.47;4.07;;;10.50;99.90;;;;;;5075195;28;20424;-66
2022/04/24 08:45:11;;;;;;;8.87;4.53;;;10.60;99.90;;;;;;5073040;28;20409;-64
2022/04/24 08:47:37;;;;;;;5.30;4.80;;;10.50;99.90;;;;;;5075374;28;20440;-66
2022/04/24 08:50:04;;;;;;;10.43;4.90;;;10.50;99.90;;;;;;5074336;28;20405;-66
2022/04/24 08:52:30;;;;;;;4.70;4.30;;;10.60;99.90;;;;;;5075015;28;20422;-63
2022/04/24 08:54:58;;;;;;;4.70;4.40;;;10.40;99.90;;;;;;5075176;28;20400;-66
2022/04/24 08:57:30;;;;;;;5.77;4.90;;;10.20;99.90;;;;;;5074872;28;20781;-66
2022/04/24 08:59:56;;;;;;;5.47;4.97;;;10.00;99.90;;;;;;5074011;28;20439;-66
2022/04/24 09:02:22;;;;;;;4.33;3.80;;;9.70;99.90;;;;;;5074333;28;20437;-63
2022/04/24 09:04:49;;;;;;;4.87;4.47;;;9.70;99.90;;;;;;5074462;28;20435;-63
2022/04/24 09:07:17;;;;;;;4.70;4.30;;;10.00;99.90;;;;;;5074812;28;20397;-65
2022/04/24 09:09:48;;;;;;;5.63;5.13;;;10.40;99.90;;;;;;5072979;28;20417;-67
2022/04/24 09:12:23;;;;;;;9.70;4.60;;;10.70;99.90;;;;;;5074800;28;20432;-66
2022/04/24 09:14:50;;;;;;;5.00;4.50;;;10.70;99.90;;;;;;5074738;28;20404;-67
2022/04/24 09:17:21;;;;;;;6.90;4.50;;;10.70;99.90;;;;;;5074588;28;20408;-67
2022/04/24 09:19:47;;;;;;;6.13;4.90;;;10.80;99.90;;;;;;5073574;28;20400;-66
2022/04/24 09:22:13;;;;;;;5.27;4.77;;;11.00;99.90;;;;;;5073914;28;20486;-67
2022/04/24 09:24:48;;;;;;;4.63;4.23;;;11.50;99.90;;;;;;5074540;28;20859;-63
2022/04/24 09:27:27;;;;;;;4.50;4.10;;;11.70;99.90;;;;;;5074447;28;20389;-62
2022/04/24 09:29:55;;;;;;;5.63;4.40;;;12.00;99.90;;;;;;5073521;28;20403;-63
2022/04/24 09:32:23;;;;;;;7.37;4.20;;;12.20;99.90;;;;;;5074489;28;20706;-68
2022/04/24 09:34:50;;;;;;;5.20;4.80;;;12.20;99.90;;;;;;5073964;28;20368;-66
2022/04/24 09:37:16;;;;;;;4.50;4.03;;;12.30;99.90;;;;;;5072132;28;20940;-63
2022/04/24 09:39:42;;;;;;;4.23;3.93;;;12.90;99.90;;;;;;5072587;28;20459;-63
2022/04/24 09:42:10;;;;;;;6.70;4.63;;;13.50;99.90;;;;;;5074149;28;20410;-63
2022/04/24 09:44:39;;;;;;;4.50;3.97;;;12.80;99.90;;;;;;5074153;28;20190;-66
2022/04/24 09:47:06;;;;;;;5.17;4.67;;;12.10;99.90;;;;;;5074067;28;20420;-66
2022/04/24 09:49:46;;;;;;;5.40;4.63;;;11.90;99.90;;;;;;5073263;28;20389;-68
2022/04/24 09:52:14;;;;;;;4.80;4.40;;;12.10;99.90;;;;;;5073971;28;20398;-64
2022/04/24 09:54:42;;;;;;;4.13;3.73;;;12.20;99.90;;;;;;5074043;28;20397;-66
2022/04/24 09:57:09;;;;;;;5.37;3.93;;;12.00;99.90;;;;;;5073551;28;20443;-65
2022/04/24 09:59:37;;;;;;;4.20;3.90;;;12.20;99.90;;;;;;5072436;28;20979;-67
2022/04/24 10:02:04;;;;;;;4.50;4.10;;;12.40;99.90;;;;;;5073746;28;20470;-66
2022/04/24 10:04:35;;;;;;;5.77;4.17;;;12.40;99.90;;;;;;5073654;28;20495;-62
2022/04/24 10:07:13;;;;;;;3.67;3.37;;;12.20;99.90;;;;;;5073783;28;20427;-65
2022/04/24 10:09:41;;;;;;;4.30;3.93;;;12.10;99.90;;;;;;5072751;28;20466;-63
2022/04/24 10:12:09;;;;;;;5.00;4.60;;;12.30;99.90;;;;;;5073627;28;20421;-66
2022/04/24 10:14:43;;;;;;;4.30;3.93;;;12.40;99.90;;;;;;5072050;28;20416;-63
2022/04/24 10:17:43;;;;;;;3.47;3.27;;;12.00;99.90;;;;;;5071959;28;20404;-63
2022/04/24 10:20:20;;;;;;;6.77;3.97;;;11.40;99.90;;;;;;5071836;28;20832;-67
2022/04/24 10:22:49;;;;;;;5.43;5.03;;;11.10;99.90;;;;;;5073539;28;20439;-66
2022/04/24 10:25:15;;;;;;;4.90;4.40;;;10.90;99.90;;;;;;5073334;28;20370;-66
2022/04/24 10:27:44;;;;;;;4.67;4.27;;;11.00;99.90;;;;;;5073280;28;20430;-63
2022/04/24 10:30:18;;;;;;;6.20;5.47;;;11.20;99.90;;;;;;5072594;28;20375;-63
2022/04/24 10:32:47;;;;;;;4.90;3.93;;;11.20;99.90;;;;;;5072807;28;20931;-68
2022/04/24 10:35:20;;;;;;;8.97;4.90;;;11.10;99.90;;;;;;5073087;28;20364;-67
2022/04/24 10:37:48;;;;;;;5.70;5.13;;;11.00;99.90;;;;;;5073085;28;20458;-66
2022/04/24 10:40:17;;;;;;;6.40;4.77;;;11.00;99.90;;;;;;5072464;28;20752;-64
2022/04/24 10:42:43;;;;;;;6.40;4.47;;;11.00;99.90;;;;;;5073121;28;20412;-63
2022/04/24 10:45:14;;;;;;;6.87;4.10;;;11.20;99.90;;;;;;5073133;28;20859;-66
2022/04/24 10:47:49;;;;;;;7.53;4.83;;;11.50;99.90;;;;;;5071791;28;20453;-63
2022/04/24 10:50:20;;;;;;;7.67;4.97;;;11.40;99.90;;;;;;5071802;28;20400;-65
2022/04/24 10:52:53;;;;;;;6.50;5.90;;;11.10;99.90;;;;;;5072549;28;20986;-65
2022/04/24 10:55:24;;;;;;;6.13;4.93;;;11.00;99.90;;;;;;5072787;28;20411;-66
2022/04/24 10:58:00;;;;;;;5.03;4.53;;;11.10;99.90;;;;;;5071434;28;20456;-67
2022/04/24 11:00:37;;;;;;;10.33;4.90;;;11.80;99.90;;;;;;5054415;28;20446;-66
2022/04/24 11:03:14;;;;;;;6.00;4.53;;;12.10;99.90;;;;;;5072889;28;20452;-63
2022/04/24 11:05:45;;;;;;;5.60;4.10;;;12.00;99.90;;;;;;5071478;28;20423;-64
2022/04/24 11:08:20;;;;;;;5.80;4.10;;;12.00;99.90;;;;;;5072952;28;20499;-63
2022/04/24 11:10:48;;;;;;;4.50;4.10;;;12.00;99.90;;;;;;5072078;28;20504;-63
2022/04/24 11:13:19;;;;;;;4.53;3.93;;;11.60;99.90;;;;;;5072133;28;20416;-66
2022/04/24 11:15:49;;;;;;;5.70;4.60;;;11.20;99.90;;;;;;5072770;28;20408;-65
2022/04/24 11:18:25;;;;;;;5.67;5.10;;;10.70;99.90;;;;;;5072734;28;20433;-65
2022/04/24 11:20:54;;;;;;;5.73;4.57;;;10.60;99.90;;;;;;5072150;28;20395;-63
2022/04/24 11:23:21;;;;;;;5.00;4.50;;;10.50;99.90;;;;;;5072794;28;20409;-63
2022/04/24 11:25:47;;;;;;;4.80;4.40;;;10.70;99.90;;;;;;5072767;28;20404;-66
2022/04/24 11:28:15;;;;;;;4.90;4.30;;;10.70;99.90;;;;;;5072591;28;20493;-66
2022/04/24 11:30:40;;;;;;;5.30;4.83;;;10.80;99.90;;;;;;5070160;28;20449;-66
2022/04/24 11:33:08;;;;;;;6.03;4.60;;;11.10;99.90;;;;;;5071589;28;20452;-63
2022/04/24 11:35:39;;;;;;;6.23;5.57;;;11.10;99.90;;;;;;5072735;28;20165;-67
2022/04/24 11:38:06;;;;;;;6.43;5.73;;;10.70;99.90;;;;;;5072635;28;20998;-67
2022/04/24 11:40:38;;;;;;;6.67;5.37;;;10.50;99.90;;;;;;5070491;28;20943;-63
2022/04/24 11:43:04;;;;;;;5.30;4.80;;;10.70;99.90;;;;;;5072538;28;20754;-63
2022/04/24 11:51:16;;;;;;;6.13;4.90;;;10.50;99.90;;;;;;5072550;28;20455;-67
2022/04/24 11:53:43;;;;;;;7.17;4.50;;;10.70;99.90;;;;;;5072320;28;20432;-66
2022/04/24 11:56:11;;;;;;;5.43;4.93;;;10.90;99.90;;;;;;5072445;28;20387;-67
2022/04/24 11:58:41;;;;;;;9.23;4.73;;;11.20;99.90;;;;;;5071369;28;20923;-63
2022/04/24 12:01:10;;;;;;;6.07;4.93;;;11.20;99.90;;;;;;5073356;28;20436;-62
2022/04/24 12:03:37;;;;;;;5.70;5.17;;;11.20;99.90;;;;;;5075764;28;20395;-64
2022/04/24 12:06:11;;;;;;;4.30;3.90;;;11.20;99.90;;;;;;5075630;28;20420;-67
2022/04/24 12:08:44;;;;;;;5.63;4.70;;;11.10;99.90;;;;;;5075041;28;20416;-63
2022/04/24 12:11:30;;;;;;;4.50;4.20;;;11.30;99.90;;;;;;5075994;28;20375;-63
2022/04/24 12:14:08;;;;;;;8.80;5.20;;;12.00;99.90;;;;;;5075737;28;20443;-63
2022/04/24 12:16:35;;;;;;;8.57;4.80;;;12.50;99.90;;;;;;5075723;28;20402;-64
2022/04/24 12:19:02;;;;;;;4.60;4.20;;;12.40;99.90;;;;;;5073568;28;20458;-63
2022/04/24 12:21:31;;;;;;;5.57;4.33;;;12.30;99.90;;;;;;5075900;28;20408;-66
2022/04/24 12:23:57;;;;;;;6.47;4.97;;;12.20;99.90;;;;;;5075039;28;20401;-66
2022/04/24 12:26:23;;;;;;;5.67;5.00;;;12.00;99.90;;;;;;5074230;28;20444;-68
2022/04/24 12:28:49;;;;;;;4.77;4.37;;;11.80;99.90;;;;;;5074860;28;21065;-67
2022/04/24 12:31:27;;;;;;;4.57;4.17;;;11.80;99.90;;;;;;5075603;28;20174;-67
2022/04/24 12:33:55;;;;;;;5.60;4.63;;;11.70;99.90;;;;;;5075607;28;20201;-66
2022/04/24 12:36:22;;;;;;;8.73;4.60;;;11.70;99.90;;;;;;5074149;28;20888;-64
2022/04/24 12:39:06;;;;;;;5.70;4.77;;;12.00;99.90;;;;;;5074275;28;20554;-64
2022/04/24 12:41:33;;;;;;;4.80;4.30;;;12.20;99.90;;;;;;5073898;28;20748;-67
2022/04/24 12:44:00;;;;;;;6.70;5.13;;;12.10;99.90;;;;;;5075409;28;20849;-63
2022/04/24 12:46:26;;;;;;;8.73;5.47;;;12.10;99.90;;;;;;5075297;28;20440;-67
2022/04/24 12:48:54;;;;;;;5.73;4.40;;;12.10;99.90;;;;;;5074425;28;20426;-63
2022/04/24 12:51:23;;;;;;;6.03;5.17;;;12.30;99.90;;;;;;5075316;28;20422;-66
2022/04/24 12:53:50;;;;;;;6.00;4.33;;;12.80;99.90;;;;;;5075228;28;20470;-67
2022/04/24 12:56:16;;;;;;;6.30;4.70;;;12.90;99.90;;;;;;5073430;28;20379;-66
2022/04/24 12:58:42;;;;;;;7.60;4.50;;;12.60;99.90;;;;;;5072882;28;20434;-68
2022/04/24 13:01:11;;;;;;;6.70;5.40;;;12.10;99.90;;;;;;5075074;28;20375;-63
2022/04/24 13:03:37;;;;;;;5.73;5.13;;;11.60;99.90;;;;;;5074987;28;20427;-68
2022/04/24 13:06:03;;;;;;;6.37;4.93;;;11.50;99.90;;;;;;5071783;28;20455;-62